sensor_id;sensor_type;location;lat;lon;timestamp;pressure;altitude;pressure_sealevel;temperature;humidity
55373;BME280;41249;47.838;16.490;2023-04-02T00:02:29;98435.34;;;4.12;69.57
55373;BME280;41249;47.838;16.490;2023-04-02T00:07:42;98433.19;;;3.94;70.12
55373;BME280;41249;47.838;16.490;2023-04-02T00:15:30;98436.44;;;3.74;70.50
55373;BME280;41249;47.838;16.490;2023-04-02T00:17:58;98432.56;;;3.75;71.56
55373;BME280;41249;47.838;16.490;2023-04-02T00:20:26;98431.75;;;3.74;71.92
55373;BME280;41249;47.838;16.490;2023-04-02T00:22:54;98434.09;;;3.72;72.80
55373;BME280;41249;47.838;16.490;2023-04-02T00:25:25;98434.84;;;3.69;71.78
55373;BME280;41249;47.838;16.490;2023-04-02T00:27:54;98428.16;;;3.70;71.68
55373;BME280;41249;47.838;16.490;2023-04-02T00:30:21;98424.69;;;3.73;72.46
55373;BME280;41249;47.838;16.490;2023-04-02T00:32:48;98429.34;;;3.69;72.60
55373;BME280;41249;47.838;16.490;2023-04-02T00:35:23;98430.09;;;3.66;72.96
55373;BME280;41249;47.838;16.490;2023-04-02T00:37:51;98432.09;;;3.69;72.92
55373;BME280;41249;47.838;16.490;2023-04-02T00:40:21;98433.66;;;3.70;71.68
55373;BME280;41249;47.838;16.490;2023-04-02T00:42:49;98429.34;;;3.69;72.17
55373;BME280;41249;47.838;16.490;2023-04-02T00:45:30;98440.47;;;3.80;71.83
55373;BME280;41249;47.838;16.490;2023-04-02T00:47:59;98439.75;;;3.86;71.32
55373;BME280;41249;47.838;16.490;2023-04-02T00:50:40;98435.47;;;3.92;71.11
55373;BME280;41249;47.838;16.490;2023-04-02T00:53:14;98439.09;;;4.00;70.48
55373;BME280;41249;47.838;16.490;2023-04-02T00:55:42;98432.84;;;3.99;70.43
55373;BME280;41249;47.838;16.490;2023-04-02T00:58:27;98441.91;;;4.03;70.79
55373;BME280;41249;47.838;16.490;2023-04-02T01:00:55;98434.88;;;4.06;70.10
55373;BME280;41249;47.838;16.490;2023-04-02T01:03:24;98432.19;;;4.13;68.77
55373;BME280;41249;47.838;16.490;2023-04-02T01:06:00;98429.84;;;4.12;68.56
55373;BME280;41249;47.838;16.490;2023-04-02T01:08:42;98426.69;;;4.13;68.64
55373;BME280;41249;47.838;16.490;2023-04-02T01:25:51;98433.91;;;4.25;67.88
55373;BME280;41249;47.838;16.490;2023-04-02T01:28:58;98433.81;;;4.18;68.14
55373;BME280;41249;47.838;16.490;2023-04-02T01:31:16;98431.06;;;4.18;68.06
55373;BME280;41249;47.838;16.490;2023-04-02T01:33:43;98432.59;;;4.15;68.88
55373;BME280;41249;47.838;16.490;2023-04-02T01:36:17;98430.66;;;4.16;69.23
55373;BME280;41249;47.838;16.490;2023-04-02T01:38:56;98423.59;;;4.15;68.99
55373;BME280;41249;47.838;16.490;2023-04-02T01:41:35;98425.97;;;4.16;67.95
55373;BME280;41249;47.838;16.490;2023-04-02T01:44:07;98422.81;;;4.14;68.38
55373;BME280;41249;47.838;16.490;2023-04-02T01:46:39;98431.41;;;4.13;69.16
55373;BME280;41249;47.838;16.490;2023-04-02T01:49:16;98420.75;;;4.07;68.65
55373;BME280;41249;47.838;16.490;2023-04-02T01:51:50;98427.03;;;4.04;69.31
55373;BME280;41249;47.838;16.490;2023-04-02T01:54:19;98428.56;;;4.02;69.08
55373;BME280;41249;47.838;16.490;2023-04-02T01:56:46;98432.13;;;4.06;68.68
55373;BME280;41249;47.838;16.490;2023-04-02T01:59:19;98432.19;;;4.10;67.82
55373;BME280;41249;47.838;16.490;2023-04-02T02:02:20;98431.75;;;4.07;68.54
55373;BME280;41249;47.838;16.490;2023-04-02T02:04:47;98425.75;;;3.98;67.96
55373;BME280;41249;47.838;16.490;2023-04-02T02:07:16;98429.59;;;3.90;69.17
55373;BME280;41249;47.838;16.490;2023-04-02T02:09:44;98427.31;;;3.96;68.69
55373;BME280;41249;47.838;16.490;2023-04-02T02:12:14;98421.09;;;4.02;68.39
55373;BME280;41249;47.838;16.490;2023-04-02T02:14:48;98420.41;;;4.09;67.43
55373;BME280;41249;47.838;16.490;2023-04-02T02:17:18;98414.50;;;4.11;67.14
55373;BME280;41249;47.838;16.490;2023-04-02T02:19:49;98419.53;;;4.05;67.60
55373;BME280;41249;47.838;16.490;2023-04-02T02:22:31;98424.69;;;4.06;67.08
55373;BME280;41249;47.838;16.490;2023-04-02T02:25:01;98415.59;;;4.02;67.00
55373;BME280;41249;47.838;16.490;2023-04-02T02:30:01;98416.31;;;3.96;67.10
55373;BME280;41249;47.838;16.490;2023-04-02T02:32:30;98419.88;;;3.96;66.59
55373;BME280;41249;47.838;16.490;2023-04-02T02:35:10;98422.28;;;4.01;66.48
55373;BME280;41249;47.838;16.490;2023-04-02T02:37:44;98417.97;;;4.04;65.61
55373;BME280;41249;47.838;16.490;2023-04-02T02:40:33;98414.44;;;4.03;65.80
55373;BME280;41249;47.838;16.490;2023-04-02T02:43:05;98419.53;;;4.01;65.20
55373;BME280;41249;47.838;16.490;2023-04-02T02:45:35;98417.19;;;4.03;65.49
55373;BME280;41249;47.838;16.490;2023-04-02T02:48:07;98425.03;;;4.05;65.82
55373;BME280;41249;47.838;16.490;2023-04-02T02:50:36;98420.81;;;4.11;64.83
55373;BME280;41249;47.838;16.490;2023-04-02T02:53:13;98423.13;;;4.09;65.44
55373;BME280;41249;47.838;16.490;2023-04-02T02:55:41;98421.97;;;4.10;65.14
55373;BME280;41249;47.838;16.490;2023-04-02T02:58:11;98429.84;;;4.12;64.22
55373;BME280;41249;47.838;16.490;2023-04-02T03:00:41;98428.28;;;4.14;64.51
55373;BME280;41249;47.838;16.490;2023-04-02T03:03:14;98431.06;;;4.18;64.68
55373;BME280;41249;47.838;16.490;2023-04-02T03:05:43;98435.47;;;4.22;64.23
55373;BME280;41249;47.838;16.490;2023-04-02T03:08:18;98435.47;;;4.26;63.82
55373;BME280;41249;47.838;16.490;2023-04-02T03:10:55;98437.88;;;4.31;63.54
55373;BME280;41249;47.838;16.490;2023-04-02T03:16:19;98440.69;;;4.38;63.91
55373;BME280;41249;47.838;16.490;2023-04-02T03:18:50;98442.28;;;4.39;63.82
55373;BME280;41249;47.838;16.490;2023-04-02T03:24:10;98448.19;;;4.41;63.01
55373;BME280;41249;47.838;16.490;2023-04-02T03:26:42;98450.56;;;4.42;63.64
55373;BME280;41249;47.838;16.490;2023-04-02T03:29:16;98440.34;;;4.43;63.13
55373;BME280;41249;47.838;16.490;2023-04-02T03:31:47;98445.06;;;4.42;63.85
55373;BME280;41249;47.838;16.490;2023-04-02T03:34:27;98451.31;;;4.39;64.18
55373;BME280;41249;47.838;16.490;2023-04-02T03:37:06;98448.19;;;4.37;63.76
55373;BME280;41249;47.838;16.490;2023-04-02T03:39:53;98452.06;;;4.36;63.87
55373;BME280;41249;47.838;16.490;2023-04-02T03:42:24;98461.53;;;4.39;63.87
55373;BME280;41249;47.838;16.490;2023-04-02T03:45:10;98458.44;;;4.44;63.49
55373;BME280;41249;47.838;16.490;2023-04-02T03:50:17;98477.25;;;4.42;63.81
55373;BME280;41249;47.838;16.490;2023-04-02T03:52:47;98486.66;;;4.41;63.51
55373;BME280;41249;47.838;16.490;2023-04-02T03:55:17;98480.81;;;4.46;63.64
55373;BME280;41249;47.838;16.490;2023-04-02T03:58:04;98481.97;;;4.45;64.62
55373;BME280;41249;47.838;16.490;2023-04-02T04:00:53;98482.03;;;4.48;63.60
55373;BME280;41249;47.838;16.490;2023-04-02T04:03:28;98489.13;;;4.53;64.20
55373;BME280;41249;47.838;16.490;2023-04-02T04:06:08;98490.69;;;4.50;64.25
55373;BME280;41249;47.838;16.490;2023-04-02T04:08:49;98489.13;;;4.53;64.22
55373;BME280;41249;47.838;16.490;2023-04-02T04:11:22;98498.56;;;4.52;63.67
55373;BME280;41249;47.838;16.490;2023-04-02T04:13:58;98501.69;;;4.50;64.96
55373;BME280;41249;47.838;16.490;2023-04-02T04:16:33;98505.56;;;4.46;64.60
55373;BME280;41249;47.838;16.490;2023-04-02T04:19:14;98501.59;;;4.43;66.92
55373;BME280;41249;47.838;16.490;2023-04-02T04:21:45;98513.25;;;4.30;66.61
55373;BME280;41249;47.838;16.490;2023-04-02T04:24:31;98510.72;;;4.18;68.70
55373;BME280;41249;47.838;16.490;2023-04-02T04:27:10;98518.13;;;4.14;68.07
55373;BME280;41249;47.838;16.490;2023-04-02T04:29:55;98510.94;;;4.02;67.52
55373;BME280;41249;47.838;16.490;2023-04-02T04:35:36;98518.34;;;3.98;68.47
55373;BME280;41249;47.838;16.490;2023-04-02T04:38:18;98517.84;;;3.92;70.29
55373;BME280;41249;47.838;16.490;2023-04-02T04:40:56;98524.22;;;3.96;70.39
55373;BME280;41249;47.838;16.490;2023-04-02T04:43:54;98522.19;;;3.93;70.91
55373;BME280;41249;47.838;16.490;2023-04-02T04:46:30;98524.56;;;3.95;69.21
55373;BME280;41249;47.838;16.490;2023-04-02T04:49:00;98530.53;;;4.00;69.32
55373;BME280;41249;47.838;16.490;2023-04-02T04:51:40;98527.03;;;4.03;70.17
55373;BME280;41249;47.838;16.490;2023-04-02T04:54:12;98525.50;;;4.06;69.02
55373;BME280;41249;47.838;16.490;2023-04-02T04:56:44;98525.97;;;4.12;69.68
55373;BME280;41249;47.838;16.490;2023-04-02T05:01:49;98522.91;;;4.17;68.49
55373;BME280;41249;47.838;16.490;2023-04-02T05:06:53;98533.97;;;4.24;69.24
55373;BME280;41249;47.838;16.490;2023-04-02T05:23:36;98545.19;;;4.45;68.20
55373;BME280;41249;47.838;16.490;2023-04-02T05:26:15;98548.03;;;4.52;68.47
55373;BME280;41249;47.838;16.490;2023-04-02T05:28:58;98548.19;;;4.66;68.58
55373;BME280;41249;47.838;16.490;2023-04-02T05:31:39;98549.97;;;4.85;67.78
55373;BME280;41249;47.838;16.490;2023-04-02T05:34:10;98549.28;;;4.98;67.77
55373;BME280;41249;47.838;16.490;2023-04-02T05:36:38;98546.59;;;5.05;67.07
55373;BME280;41249;47.838;16.490;2023-04-02T05:39:09;98548.28;;;5.13;66.26
55373;BME280;41249;47.838;16.490;2023-04-02T05:41:42;98548.00;;;5.22;66.50
55373;BME280;41249;47.838;16.490;2023-04-02T05:44:44;98550.84;;;5.40;65.68
55373;BME280;41249;47.838;16.490;2023-04-02T05:47:13;98557.66;;;5.53;64.91
55373;BME280;41249;47.838;16.490;2023-04-02T05:52:34;98557.84;;;5.81;64.46
55373;BME280;41249;47.838;16.490;2023-04-02T05:55:03;98557.13;;;5.94;64.05
55373;BME280;41249;47.838;16.490;2023-04-02T05:57:39;98561.50;;;5.99;63.13
55373;BME280;41249;47.838;16.490;2023-04-02T06:05:58;98568.38;;;6.33;62.58
55373;BME280;41249;47.838;16.490;2023-04-02T06:08:33;98569.94;;;6.34;61.19
55373;BME280;41249;47.838;16.490;2023-04-02T06:11:11;98575.47;;;6.38;62.68
55373;BME280;41249;47.838;16.490;2023-04-02T06:13:39;98575.06;;;6.39;62.26
55373;BME280;41249;47.838;16.490;2023-04-02T06:16:05;98573.13;;;6.36;61.68
55373;BME280;41249;47.838;16.490;2023-04-02T06:18:34;98584.97;;;6.44;62.18
55373;BME280;41249;47.838;16.490;2023-04-02T06:21:03;98580.66;;;6.57;61.87
55373;BME280;41249;47.838;16.490;2023-04-02T06:23:44;98577.91;;;6.57;61.23
55373;BME280;41249;47.838;16.490;2023-04-02T06:26:35;98581.00;;;6.45;60.55
55373;BME280;41249;47.838;16.490;2023-04-02T06:29:11;98582.56;;;6.39;61.70
55373;BME280;41249;47.838;16.490;2023-04-02T06:31:47;98595.91;;;6.26;60.82
55373;BME280;41249;47.838;16.490;2023-04-02T06:34:20;98596.66;;;6.23;60.55
55373;BME280;41249;47.838;16.490;2023-04-02T06:36:49;98597.13;;;6.36;60.95
55373;BME280;41249;47.838;16.490;2023-04-02T06:39:19;98601.88;;;6.42;60.74
55373;BME280;41249;47.838;16.490;2023-04-02T06:42:04;98603.50;;;6.50;61.33
55373;BME280;41249;47.838;16.490;2023-04-02T06:44:36;98604.28;;;6.54;61.38
55373;BME280;41249;47.838;16.490;2023-04-02T06:47:33;98600.78;;;6.64;60.99
55373;BME280;41249;47.838;16.490;2023-04-02T06:50:04;98612.25;;;6.67;60.06
55373;BME280;41249;47.838;16.490;2023-04-02T06:52:35;98600.00;;;6.68;59.86
55373;BME280;41249;47.838;16.490;2023-04-02T06:55:43;98601.66;;;6.76;59.35
55373;BME280;41249;47.838;16.490;2023-04-02T06:58:14;98613.47;;;6.73;59.24
55373;BME280;41249;47.838;16.490;2023-04-02T07:00:45;98607.97;;;6.80;58.40
55373;BME280;41249;47.838;16.490;2023-04-02T07:03:24;98609.59;;;6.95;59.23
55373;BME280;41249;47.838;16.490;2023-04-02T07:05:52;98609.19;;;7.00;57.32
55373;BME280;41249;47.838;16.490;2023-04-02T07:08:19;98609.63;;;7.12;58.67
55373;BME280;41249;47.838;16.490;2023-04-02T07:10:46;98630.16;;;7.22;57.40
55373;BME280;41249;47.838;16.490;2023-04-02T07:13:19;98611.63;;;7.26;57.49
55373;BME280;41249;47.838;16.490;2023-04-02T07:15:48;98630.94;;;7.37;57.34
55373;BME280;41249;47.838;16.490;2023-04-02T07:18:36;98623.06;;;7.42;56.40
55373;BME280;41249;47.838;16.490;2023-04-02T07:21:03;98626.25;;;7.58;57.15
55373;BME280;41249;47.838;16.490;2023-04-02T07:23:30;98621.47;;;7.34;57.29
55373;BME280;41249;47.838;16.490;2023-04-02T07:25:56;98632.13;;;7.18;57.10
55373;BME280;41249;47.838;16.490;2023-04-02T07:28:24;98640.41;;;7.18;57.08
55373;BME280;41249;47.838;16.490;2023-04-02T07:30:51;98650.25;;;7.22;56.64
55373;BME280;41249;47.838;16.490;2023-04-02T07:33:21;98635.63;;;7.01;56.93
55373;BME280;41249;47.838;16.490;2023-04-02T07:35:50;98642.38;;;7.14;56.90
55373;BME280;41249;47.838;16.490;2023-04-02T07:38:17;98645.13;;;7.24;57.46
55373;BME280;41249;47.838;16.490;2023-04-02T07:40:44;98662.13;;;7.30;57.46
55373;BME280;41249;47.838;16.490;2023-04-02T07:43:11;98649.91;;;7.45;57.30
55373;BME280;41249;47.838;16.490;2023-04-02T07:45:38;98662.56;;;7.53;55.71
55373;BME280;41249;47.838;16.490;2023-04-02T07:48:09;98659.00;;;7.56;57.64
55373;BME280;41249;47.838;16.490;2023-04-02T07:50:37;98671.19;;;7.34;56.23
55373;BME280;41249;47.838;16.490;2023-04-02T07:53:04;98667.22;;;7.14;57.82
55373;BME280;41249;47.838;16.490;2023-04-02T07:55:32;98670.34;;;7.09;57.54
55373;BME280;41249;47.838;16.490;2023-04-02T07:57:59;98678.59;;;7.02;58.64
55373;BME280;41249;47.838;16.490;2023-04-02T08:00:27;98708.91;;;6.95;58.56
55373;BME280;41249;47.838;16.490;2023-04-02T08:02:54;98692.66;;;6.72;59.81
55373;BME280;41249;47.838;16.490;2023-04-02T08:05:21;98687.47;;;6.63;60.74
55373;BME280;41249;47.838;16.490;2023-04-02T08:07:55;98684.38;;;6.69;61.61
55373;BME280;41249;47.838;16.490;2023-04-02T08:10:22;98697.00;;;6.73;60.66
55373;BME280;41249;47.838;16.490;2023-04-02T08:12:49;98685.16;;;6.73;61.44
55373;BME280;41249;47.838;16.490;2023-04-02T08:15:17;98698.19;;;6.79;61.09
55373;BME280;41249;47.838;16.490;2023-04-02T08:17:44;98711.31;;;7.00;60.01
55373;BME280;41249;47.838;16.490;2023-04-02T08:20:17;98695.25;;;7.30;60.19
55373;BME280;41249;47.838;16.490;2023-04-02T08:22:45;98698.84;;;7.55;59.19
55373;BME280;41249;47.838;16.490;2023-04-02T08:25:12;98689.41;;;7.91;58.53
55373;BME280;41249;47.838;16.490;2023-04-02T08:27:39;98694.91;;;7.91;58.49
55373;BME280;41249;47.838;16.490;2023-04-02T08:30:07;98701.25;;;7.92;57.69
55373;BME280;41249;47.838;16.490;2023-04-02T08:32:34;98711.91;;;7.90;58.33
55373;BME280;41249;47.838;16.490;2023-04-02T08:35:00;98704.78;;;7.54;59.08
55373;BME280;41249;47.838;16.490;2023-04-02T08:37:28;98703.59;;;7.51;59.16
55373;BME280;41249;47.838;16.490;2023-04-02T08:39:54;98715.34;;;7.27;58.79
55373;BME280;41249;47.838;16.490;2023-04-02T08:43:13;98713.34;;;7.24;58.66
55373;BME280;41249;47.838;16.490;2023-04-02T08:47:52;98716.19;;;7.52;58.52
55373;BME280;41249;47.838;16.490;2023-04-02T08:50:29;98733.16;;;7.54;57.83
55373;BME280;41249;47.838;16.490;2023-04-02T08:52:59;98722.06;;;7.33;57.98
55373;BME280;41249;47.838;16.490;2023-04-02T08:55:41;98727.19;;;7.27;59.45
55373;BME280;41249;47.838;16.490;2023-04-02T08:58:49;98733.13;;;7.37;59.81
55373;BME280;41249;47.838;16.490;2023-04-02T09:01:45;98729.53;;;7.29;60.01
55373;BME280;41249;47.838;16.490;2023-04-02T09:04:17;98738.59;;;7.19;59.49
55373;BME280;41249;47.838;16.490;2023-04-02T09:06:46;98730.72;;;7.24;59.69
55373;BME280;41249;47.838;16.490;2023-04-02T09:09:14;98730.31;;;7.19;58.97
55373;BME280;41249;47.838;16.490;2023-04-02T09:11:54;98745.63;;;7.06;59.05
55373;BME280;41249;47.838;16.490;2023-04-02T09:17:23;98749.44;;;6.80;60.62
55373;BME280;41249;47.838;16.490;2023-04-02T09:20:20;98753.84;;;6.88;60.13
55373;BME280;41249;47.838;16.490;2023-04-02T09:22:50;98758.63;;;7.02;59.93
55373;BME280;41249;47.838;16.490;2023-04-02T09:25:20;98747.66;;;7.16;60.87
55373;BME280;41249;47.838;16.490;2023-04-02T09:27:48;98772.16;;;7.32;60.12
55373;BME280;41249;47.838;16.490;2023-04-02T09:32:59;98764.19;;;7.12;61.60
55373;BME280;41249;47.838;16.490;2023-04-02T09:35:29;98766.56;;;7.10;61.19
55373;BME280;41249;47.838;16.490;2023-04-02T09:38:20;98770.06;;;7.00;61.99
55373;BME280;41249;47.838;16.490;2023-04-02T09:43:23;98772.78;;;6.93;62.12
55373;BME280;41249;47.838;16.490;2023-04-02T09:48:59;98774.94;;;6.63;66.60
55373;BME280;41249;47.838;16.490;2023-04-02T09:51:31;98781.66;;;6.65;65.81
55373;BME280;41249;47.838;16.490;2023-04-02T09:56:34;98780.22;;;6.35;66.54
55373;BME280;41249;47.838;16.490;2023-04-02T09:59:19;98784.66;;;6.46;65.26
55373;BME280;41249;47.838;16.490;2023-04-02T10:04:43;98782.31;;;6.48;66.69
55373;BME280;41249;47.838;16.490;2023-04-02T10:07:38;98789.13;;;6.61;66.01
55373;BME280;41249;47.838;16.490;2023-04-02T10:10:16;98789.84;;;6.51;66.21
55373;BME280;41249;47.838;16.490;2023-04-02T10:12:58;98790.44;;;6.78;65.39
55373;BME280;41249;47.838;16.490;2023-04-02T10:15:49;98794.91;;;7.04;64.09
55373;BME280;41249;47.838;16.490;2023-04-02T10:18:45;98789.38;;;7.00;65.34
55373;BME280;41249;47.838;16.490;2023-04-02T10:21:23;98794.19;;;7.17;66.08
55373;BME280;41249;47.838;16.490;2023-04-02T10:23:50;98795.44;;;7.31;64.40
55373;BME280;41249;47.838;16.490;2023-04-02T10:34:38;98806.66;;;6.90;64.75
55373;BME280;41249;47.838;16.490;2023-04-02T10:39:56;98804.13;;;6.20;66.68
55373;BME280;41249;47.838;16.490;2023-04-02T10:42:35;98809.34;;;6.32;67.45
55373;BME280;41249;47.838;16.490;2023-04-02T10:48:09;98817.91;;;6.17;68.16
55373;BME280;41249;47.838;16.490;2023-04-02T10:53:15;98823.44;;;6.20;66.96
55373;BME280;41249;47.838;16.490;2023-04-02T10:55:47;98820.16;;;6.04;68.45
55373;BME280;41249;47.838;16.490;2023-04-02T10:58:29;98814.47;;;5.90;69.59
55373;BME280;41249;47.838;16.490;2023-04-02T11:01:04;98827.69;;;5.74;71.31
55373;BME280;41249;47.838;16.490;2023-04-02T11:03:37;98816.63;;;5.70;70.17
55373;BME280;41249;47.838;16.490;2023-04-02T11:06:13;98824.53;;;5.72;72.32
55373;BME280;41249;47.838;16.490;2023-04-02T11:08:46;98822.59;;;5.76;70.43
55373;BME280;41249;47.838;16.490;2023-04-02T11:11:25;98820.66;;;5.80;69.18
55373;BME280;41249;47.838;16.490;2023-04-02T11:16:32;98827.03;;;5.84;68.69
55373;BME280;41249;47.838;16.490;2023-04-02T11:21:41;98824.00;;;5.96;69.47
55373;BME280;41249;47.838;16.490;2023-04-02T11:24:31;98816.88;;;5.95;69.27
55373;BME280;41249;47.838;16.490;2023-04-02T11:29:31;98822.34;;;6.32;67.52
55373;BME280;41249;47.838;16.490;2023-04-02T11:37:41;98830.28;;;6.88;65.88
55373;BME280;41249;47.838;16.490;2023-04-02T11:42:38;98839.47;;;7.06;64.95
55373;BME280;41249;47.838;16.490;2023-04-02T11:50:35;98837.81;;;7.77;62.58
55373;BME280;41249;47.838;16.490;2023-04-02T11:56:03;98852.16;;;8.21;61.52
55373;BME280;41249;47.838;16.490;2023-04-02T12:09:50;98837.97;;;8.72;59.78
55373;BME280;41249;47.838;16.490;2023-04-02T12:12:33;98839.94;;;8.57;59.67
55373;BME280;41249;47.838;16.490;2023-04-02T12:15:02;98851.78;;;8.72;59.56
55373;BME280;41249;47.838;16.490;2023-04-02T12:17:32;98854.94;;;8.56;60.21
55373;BME280;41249;47.838;16.490;2023-04-02T12:22:39;98895.50;;;7.92;61.86
55373;BME280;41249;47.838;16.490;2023-04-02T12:25:34;98877.13;;;7.42;63.29
55373;BME280;41249;47.838;16.490;2023-04-02T12:28:06;98870.66;;;7.13;64.67
55373;BME280;41249;47.838;16.490;2023-04-02T12:30:40;98883.22;;;7.04;65.57
55373;BME280;41249;47.838;16.490;2023-04-02T12:33:26;98886.28;;;6.92;68.82
55373;BME280;41249;47.838;16.490;2023-04-02T12:35:57;98876.56;;;6.61;67.15
55373;BME280;41249;47.838;16.490;2023-04-02T12:38:30;98881.88;;;6.36;69.12
55373;BME280;41249;47.838;16.490;2023-04-02T12:41:00;98883.13;;;6.06;70.83
55373;BME280;41249;47.838;16.490;2023-04-02T12:43:34;98893.88;;;5.81;70.95
55373;BME280;41249;47.838;16.490;2023-04-02T12:46:03;98896.28;;;5.53;71.86
55373;BME280;41249;47.838;16.490;2023-04-02T12:48:32;98912.00;;;5.00;75.32
55373;BME280;41249;47.838;16.490;2023-04-02T12:51:01;98909.56;;;4.68;77.38
55373;BME280;41249;47.838;16.490;2023-04-02T12:53:33;98925.22;;;4.23;77.77
55373;BME280;41249;47.838;16.490;2023-04-02T12:56:00;98912.16;;;4.16;78.07
55373;BME280;41249;47.838;16.490;2023-04-02T12:58:41;98930.75;;;4.03;78.05
55373;BME280;41249;47.838;16.490;2023-04-02T13:01:14;98926.44;;;3.83;79.03
55373;BME280;41249;47.838;16.490;2023-04-02T13:03:41;98933.72;;;3.76;77.91
55373;BME280;41249;47.838;16.490;2023-04-02T13:06:26;98929.63;;;3.66;77.94
55373;BME280;41249;47.838;16.490;2023-04-02T13:08:53;98934.97;;;3.59;76.96
55373;BME280;41249;47.838;16.490;2023-04-02T13:11:20;98942.78;;;3.57;76.74
55373;BME280;41249;47.838;16.490;2023-04-02T13:13:48;98945.09;;;3.74;77.22
55373;BME280;41249;47.838;16.490;2023-04-02T13:18:45;98952.03;;;3.87;78.95
55373;BME280;41249;47.838;16.490;2023-04-02T13:23:42;98945.81;;;3.71;80.11
55373;BME280;41249;47.838;16.490;2023-04-02T13:26:19;98951.81;;;3.77;80.63
55373;BME280;41249;47.838;16.490;2023-04-02T13:29:00;98963.69;;;4.23;79.02
55373;BME280;41249;47.838;16.490;2023-04-02T13:31:31;98972.81;;;4.27;77.81
55373;BME280;41249;47.838;16.490;2023-04-02T13:33:58;98972.03;;;4.07;78.15
55373;BME280;41249;47.838;16.490;2023-04-02T13:36:25;98981.63;;;3.97;79.08
55373;BME280;41249;47.838;16.490;2023-04-02T13:38:54;98972.81;;;4.07;78.98
55373;BME280;41249;47.838;16.490;2023-04-02T13:41:25;98970.88;;;4.27;78.50
55373;BME280;41249;47.838;16.490;2023-04-02T13:43:53;98982.22;;;4.26;76.98
55373;BME280;41249;47.838;16.490;2023-04-02T13:46:26;98985.50;;;4.54;76.50
55373;BME280;41249;47.838;16.490;2023-04-02T13:48:54;98980.16;;;4.42;76.82
55373;BME280;41249;47.838;16.490;2023-04-02T13:51:23;98985.66;;;4.23;77.30
55373;BME280;41249;47.838;16.490;2023-04-02T13:53:54;98987.78;;;4.29;77.94
55373;BME280;41249;47.838;16.490;2023-04-02T13:56:23;99005.63;;;4.00;77.69
55373;BME280;41249;47.838;16.490;2023-04-02T13:58:50;98979.78;;;3.82;79.34
55373;BME280;41249;47.838;16.490;2023-04-02T14:01:18;98990.91;;;3.89;78.47
55373;BME280;41249;47.838;16.490;2023-04-02T14:03:46;98990.97;;;3.74;78.44
55373;BME280;41249;47.838;16.490;2023-04-02T14:06:21;98990.72;;;3.63;78.86
55373;BME280;41249;47.838;16.490;2023-04-02T14:11:52;99002.97;;;4.04;77.50
55373;BME280;41249;47.838;16.490;2023-04-02T14:33:43;99023.06;;;3.54;75.96
55373;BME280;41249;47.838;16.490;2023-04-02T14:44:00;99035.13;;;3.50;75.85
55373;BME280;41249;47.838;16.490;2023-04-02T14:46:29;99029.94;;;3.29;74.60
55373;BME280;41249;47.838;16.490;2023-04-02T14:49:05;99033.19;;;3.34;75.18
55373;BME280;41249;47.838;16.490;2023-04-02T14:51:41;99029.16;;;3.48;75.15
55373;BME280;41249;47.838;16.490;2023-04-02T14:54:13;99029.28;;;3.51;75.26
55373;BME280;41249;47.838;16.490;2023-04-02T14:56:49;99030.75;;;3.64;74.65
55373;BME280;41249;47.838;16.490;2023-04-02T15:01:59;99041.34;;;4.00;74.14
55373;BME280;41249;47.838;16.490;2023-04-02T15:04:35;99035.88;;;4.20;74.20
55373;BME280;41249;47.838;16.490;2023-04-02T15:07:35;99041.00;;;4.21;73.44
55373;BME280;41249;47.838;16.490;2023-04-02T15:10:29;99049.75;;;4.27;73.93
55373;BME280;41249;47.838;16.490;2023-04-02T15:12:59;99055.25;;;4.27;73.31
55373;BME280;41249;47.838;16.490;2023-04-02T15:15:41;99062.41;;;4.12;73.93
55373;BME280;41249;47.838;16.490;2023-04-02T15:18:16;99065.34;;;4.03;74.11
55373;BME280;41249;47.838;16.490;2023-04-02T15:21:14;99074.53;;;3.92;74.34
55373;BME280;41249;47.838;16.490;2023-04-02T15:23:51;99084.13;;;3.82;74.70
55373;BME280;41249;47.838;16.490;2023-04-02T15:32:05;99086.50;;;3.84;75.56
55373;BME280;41249;47.838;16.490;2023-04-02T15:37:49;99081.72;;;3.65;75.21
55373;BME280;41249;47.838;16.490;2023-04-02T15:43:28;99091.75;;;3.58;75.69
55373;BME280;41249;47.838;16.490;2023-04-02T15:46:54;99098.84;;;3.43;75.73
55373;BME280;41249;47.838;16.490;2023-04-02T15:49:17;99094.09;;;3.40;75.76
55373;BME280;41249;47.838;16.490;2023-04-02T15:54:40;99113.31;;;3.40;75.90
55373;BME280;41249;47.838;16.490;2023-04-02T16:00:00;99108.69;;;3.44;75.80
55373;BME280;41249;47.838;16.490;2023-04-02T16:02:50;99115.16;;;3.36;75.94
55373;BME280;41249;47.838;16.490;2023-04-02T16:05:38;99124.88;;;3.49;75.80
55373;BME280;41249;47.838;16.490;2023-04-02T16:11:23;99125.84;;;3.41;74.45
55373;BME280;41249;47.838;16.490;2023-04-02T16:13:51;99132.41;;;3.36;73.17
55373;BME280;41249;47.838;16.490;2023-04-02T16:16:31;99132.19;;;3.14;73.62
55373;BME280;41249;47.838;16.490;2023-04-02T16:21:47;99143.84;;;3.11;73.81
55373;BME280;41249;47.838;16.490;2023-04-02T16:24:15;99163.75;;;3.08;74.63
55373;BME280;41249;47.838;16.490;2023-04-02T16:26:56;99164.63;;;2.96;73.72
55373;BME280;41249;47.838;16.490;2023-04-02T16:38:14;99186.94;;;2.55;72.64
55373;BME280;41249;47.838;16.490;2023-04-02T16:40:49;99195.22;;;2.43;71.98
55373;BME280;41249;47.838;16.490;2023-04-02T16:44:01;99183.13;;;2.32;71.81
55373;BME280;41249;47.838;16.490;2023-04-02T16:49:45;99201.03;;;2.29;71.70
55373;BME280;41249;47.838;16.490;2023-04-02T16:58:46;99194.91;;;2.08;70.87
55373;BME280;41249;47.838;16.490;2023-04-02T17:00:59;99205.53;;;1.97;70.13
55373;BME280;41249;47.838;16.490;2023-04-02T17:03:55;99218.66;;;1.92;70.16
55373;BME280;41249;47.838;16.490;2023-04-02T17:06:39;99234.16;;;1.88;70.31
55373;BME280;41249;47.838;16.490;2023-04-02T17:09:21;99214.88;;;1.84;70.26
55373;BME280;41249;47.838;16.490;2023-04-02T17:17:19;99247.81;;;1.76;69.75
55373;BME280;41249;47.838;16.490;2023-04-02T17:19:49;99256.94;;;1.68;69.97
55373;BME280;41249;47.838;16.490;2023-04-02T17:22:20;99253.50;;;1.59;69.88